createdAt,value
2019-02-12T00:00:36.537Z,5.03
2019-02-12T00:03:38.455Z,11.73
2019-02-12T00:06:40.674Z,7.00
2019-02-12T00:09:42.543Z,6.47
2019-02-12T00:12:44.537Z,6.97
2019-02-12T00:15:46.472Z,8.70
2019-02-12T00:18:48.428Z,10.27
2019-02-12T00:21:50.355Z,9.77
2019-02-12T00:24:52.312Z,4.30
2019-02-12T00:27:54.182Z,8.80
2019-02-12T00:30:56.100Z,7.43
2019-02-12T00:33:58.018Z,8.27
2019-02-12T00:37:00.300Z,5.90
2019-02-12T00:40:03.260Z,10.13
2019-02-12T00:43:05.246Z,10.73
2019-02-12T00:46:07.184Z,7.50
2019-02-12T00:49:09.088Z,14.83
2019-02-12T00:52:11.270Z,11.00
2019-02-12T00:55:13.205Z,11.60
2019-02-12T00:58:15.206Z,11.03
2019-02-12T01:01:17.140Z,13.73
2019-02-12T01:04:19.075Z,10.50
2019-02-12T01:07:20.895Z,12.10
2019-02-12T01:10:22.866Z,10.40
2019-02-12T01:13:24.724Z,12.03
2019-02-12T01:16:26.606Z,11.97
2019-02-12T01:19:28.499Z,11.77
2019-02-12T01:22:30.478Z,14.17
2019-02-12T01:25:32.405Z,9.97
2019-02-12T01:28:34.400Z,9.40
2019-02-12T01:31:36.301Z,11.83
2019-02-12T01:34:38.241Z,18.93
2019-02-12T01:37:40.207Z,12.40
2019-02-12T01:40:42.149Z,13.83
2019-02-12T01:43:44.264Z,15.57
2019-02-12T01:46:46.157Z,16.00
2019-02-12T01:49:48.120Z,16.63
2019-02-12T01:52:49.963Z,12.03
2019-02-12T01:55:51.955Z,16.53
2019-02-12T01:58:53.826Z,16.00
2019-02-12T02:01:55.779Z,12.27
2019-02-12T02:04:57.676Z,16.87
2019-02-12T02:07:59.558Z,10.67
2019-02-12T02:11:01.448Z,11.70
2019-02-12T02:14:03.502Z,15.17
2019-02-12T02:17:05.416Z,12.37
2019-02-12T02:20:10.054Z,11.37
2019-02-12T02:23:11.971Z,14.87
2019-02-12T02:26:14.016Z,13.03
2019-02-12T02:29:15.920Z,21.80
2019-02-12T02:32:17.855Z,12.87
2019-02-12T02:35:19.785Z,14.83
2019-02-12T02:38:21.776Z,16.93
2019-02-12T02:41:23.659Z,22.50
2019-02-12T02:44:25.661Z,16.60
2019-02-12T02:47:28.272Z,12.83
2019-02-12T02:50:30.186Z,17.57
2019-02-12T02:53:32.146Z,11.77
2019-02-12T02:56:34.138Z,20.93
2019-02-12T02:59:36.069Z,12.90
2019-02-12T03:02:37.972Z,14.77
2019-02-12T03:05:39.912Z,10.47
2019-02-12T03:08:41.902Z,8.53
2019-02-12T03:11:43.828Z,14.63
2019-02-12T03:14:45.827Z,22.90
2019-02-12T03:17:47.762Z,15.37
2019-02-12T03:20:49.733Z,14.80
2019-02-12T03:23:51.623Z,16.23
2019-02-12T03:26:53.599Z,18.00
2019-02-12T03:29:55.664Z,10.97
2019-02-12T03:32:57.597Z,14.67
2019-02-12T03:35:59.541Z,13.50
2019-02-12T03:39:01.399Z,12.43
2019-02-12T03:42:03.390Z,13.97
2019-02-12T03:45:08.538Z,9.17
2019-02-12T03:48:11.972Z,10.53
2019-02-12T03:51:13.915Z,15.97
2019-02-12T03:54:15.859Z,8.20
2019-02-12T03:57:17.786Z,12.07
2019-02-12T04:00:19.739Z,12.87
2019-02-12T04:03:21.733Z,14.20
2019-02-12T04:06:23.625Z,14.43
2019-02-12T04:09:25.530Z,11.07
2019-02-12T04:12:27.474Z,13.73
2019-02-12T04:15:29.368Z,7.70
2019-02-12T04:18:31.316Z,12.93
2019-02-12T04:21:33.139Z,7.83
2019-02-12T04:24:35.088Z,10.60
2019-02-12T04:27:37.033Z,11.73
2019-02-12T04:30:38.925Z,8.73
2019-02-12T04:33:40.881Z,15.23
2019-02-12T04:36:42.829Z,12.43
2019-02-12T04:39:44.761Z,7.20
2019-02-12T04:42:46.682Z,8.63
2019-02-12T04:45:48.646Z,13.17
2019-02-12T04:48:51.383Z,4.00
2019-02-12T04:51:53.407Z,6.33
2019-02-12T04:54:55.331Z,15.13
2019-02-12T04:57:57.306Z,10.53
2019-02-12T05:00:59.589Z,10.60
2019-02-12T05:04:01.652Z,10.43
2019-02-12T05:07:03.530Z,7.47
2019-02-12T05:10:08.848Z,7.80
2019-02-12T05:13:10.772Z,7.73
2019-02-12T05:16:12.717Z,8.57
2019-02-12T05:19:14.611Z,9.70
2019-02-12T05:22:16.647Z,7.17
2019-02-12T05:25:18.595Z,10.20
2019-02-12T05:28:20.617Z,7.53
2019-02-12T05:31:22.490Z,6.80
2019-02-12T05:34:24.469Z,9.73
2019-02-12T05:37:26.385Z,4.53
2019-02-12T05:40:28.426Z,7.07
2019-02-12T05:43:30.393Z,7.13
2019-02-12T05:46:32.429Z,7.93
2019-02-12T05:49:34.670Z,7.40
2019-02-12T05:52:37.664Z,9.33
2019-02-12T05:55:40.903Z,12.20
2019-02-12T05:58:42.948Z,6.30
2019-02-12T06:01:44.985Z,8.03
2019-02-12T06:04:46.950Z,9.60
2019-02-12T06:07:48.877Z,9.43
2019-02-12T06:10:50.821Z,5.10
2019-02-12T06:13:52.773Z,4.77
2019-02-12T06:16:54.926Z,6.67
2019-02-12T06:19:57.111Z,6.40
2019-02-12T06:23:03.846Z,7.70
2019-02-12T06:26:03.045Z,9.03
2019-02-12T06:29:05.232Z,3.13
2019-02-12T06:32:07.271Z,4.33
2019-02-12T06:35:09.204Z,17.53
2019-02-12T06:38:11.623Z,9.80
2019-02-12T06:41:13.536Z,8.03
2019-02-12T06:44:15.490Z,12.73
2019-02-12T06:47:17.430Z,8.90
2019-02-12T06:50:19.746Z,15.43
2019-02-12T06:53:21.672Z,13.63
2019-02-12T06:56:23.635Z,11.10
2019-02-12T06:59:25.590Z,9.20
2019-02-12T07:03:04.582Z,9.17
2019-02-12T07:06:26.663Z,15.70
2019-02-12T07:09:38.273Z,7.03
2019-02-12T07:12:43.805Z,11.27
2019-02-12T07:15:45.811Z,7.80
2019-02-12T07:18:57.470Z,13.93
2019-02-12T07:22:25.442Z,12.73
2019-02-12T07:25:42.945Z,13.10
2019-02-12T07:28:58.802Z,15.10
2019-02-12T07:32:07.350Z,9.93
2019-02-12T07:35:16.851Z,9.67
2019-02-12T07:38:22.349Z,7.63
2019-02-12T07:41:46.342Z,16.30
2019-02-12T07:44:57.953Z,13.47
2019-02-12T07:48:03.635Z,9.47
2019-02-12T07:51:18.093Z,9.40
2019-02-12T07:54:44.847Z,8.90
2019-02-12T07:57:59.461Z,7.53
2019-02-12T08:01:26.101Z,7.17
2019-02-12T08:04:51.654Z,6.97
2019-02-12T08:07:57.281Z,7.70
2019-02-12T08:11:08.881Z,8.43
2019-02-12T08:14:32.681Z,7.10
2019-02-12T08:18:07.245Z,10.73
2019-02-12T08:21:18.676Z,11.63
2019-02-12T08:24:30.620Z,11.57
2019-02-12T08:27:54.236Z,9.47
2019-02-12T08:31:14.296Z,10.97
2019-02-12T08:34:28.754Z,6.77
2019-02-12T08:37:43.194Z,8.23
2019-02-12T08:41:11.656Z,4.97
2019-02-12T08:44:23.052Z,13.43
2019-02-12T08:47:34.910Z,12.77
2019-02-12T08:50:55.573Z,7.87
2019-02-12T08:54:19.249Z,7.97
2019-02-12T08:57:27.613Z,6.80
2019-02-12T09:00:48.285Z,3.03
2019-02-12T09:04:02.567Z,11.83
2019-02-12T09:07:32.272Z,7.83
2019-02-12T09:10:53.221Z,10.93
2019-02-12T09:14:04.824Z,3.10
2019-02-12T09:17:25.434Z,7.90
2019-02-12T09:20:47.299Z,6.43
2019-02-12T09:24:12.427Z,8.23
2019-02-12T09:27:26.897Z,4.20
2019-02-12T09:30:49.306Z,4.73
2019-02-12T09:34:28.672Z,9.87
2019-02-12T09:37:37.217Z,8.50
2019-02-12T09:40:57.942Z,8.63
2019-02-12T09:44:18.922Z,9.33
2019-02-12T09:47:36.462Z,10.17
2019-02-12T09:50:42.206Z,11.30
2019-02-12T09:54:08.995Z,10.43
2019-02-12T09:57:18.158Z,8.43
2019-02-12T10:00:23.662Z,6.50
2019-02-12T10:03:56.477Z,8.27
2019-02-12T10:07:13.842Z,14.60
2019-02-12T10:10:45.519Z,16.73
2019-02-12T10:14:03.391Z,20.03
2019-02-12T10:17:30.523Z,17.57
2019-02-12T10:20:44.875Z,20.67
2019-02-12T10:24:19.289Z,4.93
2019-02-12T10:27:37.426Z,8.17
2019-02-12T10:30:45.861Z,10.23
2019-02-12T10:33:47.804Z,9.97
2019-02-12T10:36:49.734Z,9.60
2019-02-12T10:39:51.687Z,9.93
2019-02-12T10:42:53.559Z,7.60
2019-02-12T10:45:55.537Z,4.40
2019-02-12T10:48:57.516Z,6.03
2019-02-12T10:51:59.664Z,7.13
2019-02-12T10:55:01.896Z,7.37
2019-02-12T10:58:03.794Z,5.60
2019-02-12T11:01:06.269Z,8.17
2019-02-12T11:04:08.163Z,9.03
2019-02-12T11:07:10.079Z,7.43
2019-02-12T11:10:12.132Z,9.03
2019-02-12T11:13:14.065Z,11.20
2019-02-12T11:16:16.263Z,7.57
2019-02-12T11:19:18.209Z,6.63
2019-02-12T11:22:20.195Z,6.30
2019-02-12T11:25:22.153Z,4.47
2019-02-12T11:28:24.185Z,7.30
2019-02-12T11:31:26.099Z,6.97
2019-02-12T11:34:28.075Z,3.67
2019-02-12T11:37:29.999Z,4.13
2019-02-12T11:40:31.957Z,4.47
2019-02-12T11:43:33.905Z,8.97
2019-02-12T11:46:35.819Z,9.67
2019-02-12T11:49:37.759Z,4.27
2019-02-12T11:52:39.789Z,5.90
2019-02-12T11:55:41.704Z,4.77
2019-02-12T11:58:43.658Z,3.27
2019-02-12T12:01:46.079Z,6.13
2019-02-12T12:04:48.009Z,6.57
2019-02-12T12:07:49.921Z,3.50
2019-02-12T12:10:51.830Z,4.50
2019-02-12T12:13:53.750Z,9.53
2019-02-12T12:16:55.714Z,5.20
2019-02-12T12:19:57.652Z,3.17
2019-02-12T12:22:59.659Z,5.03
2019-02-12T12:26:01.616Z,4.50
2019-02-12T12:29:03.707Z,9.87
2019-02-12T12:32:05.571Z,8.37
2019-02-12T12:35:09.245Z,6.97
2019-02-12T12:38:11.137Z,5.37
2019-02-12T12:41:13.091Z,4.70
2019-02-12T12:44:15.018Z,2.83
2019-02-12T12:47:16.979Z,5.93
2019-02-12T12:50:18.845Z,4.83
2019-02-12T12:53:22.308Z,4.33
2019-02-12T12:56:24.131Z,7.77
2019-02-12T12:59:26.158Z,5.77
2019-02-12T13:02:28.434Z,16.70
2019-02-12T13:05:30.375Z,5.60
2019-02-12T13:08:32.270Z,11.13
2019-02-12T13:11:34.578Z,10.17
2019-02-12T13:14:36.445Z,14.57
2019-02-12T13:17:38.983Z,7.07
2019-02-12T13:20:40.910Z,5.43
2019-02-12T13:23:42.871Z,6.50
2019-02-12T13:26:44.847Z,11.63
2019-02-12T13:29:46.790Z,5.33
2019-02-12T13:32:50.310Z,9.93
2019-02-12T13:35:52.369Z,7.97
2019-02-12T13:38:54.388Z,2.83
2019-02-12T13:41:56.397Z,8.00
2019-02-12T13:44:58.389Z,4.93
2019-02-12T13:48:00.350Z,2.77
2019-02-12T13:51:02.274Z,7.13
2019-02-12T13:54:04.866Z,6.57
2019-02-12T13:57:06.747Z,3.47
2019-02-12T14:00:15.701Z,6.23
2019-02-12T14:03:22.558Z,4.33
2019-02-12T14:06:22.732Z,5.43
2019-02-12T14:09:24.649Z,3.23
2019-02-12T14:12:26.531Z,6.40
2019-02-12T14:15:28.485Z,8.70
2019-02-12T14:18:30.474Z,11.37
2019-02-12T14:21:32.495Z,11.10
2019-02-12T14:24:34.360Z,15.10
2019-02-12T14:27:36.350Z,6.47
2019-02-12T14:30:38.305Z,11.70
2019-02-12T14:33:40.515Z,11.83
2019-02-12T14:36:42.425Z,30.73
2019-02-12T14:39:44.430Z,9.60
2019-02-12T14:42:46.530Z,4.53
2019-02-12T14:45:48.475Z,9.53
2019-02-12T14:48:50.440Z,5.83
2019-02-12T14:51:52.570Z,4.90
2019-02-12T14:54:54.600Z,10.93
2019-02-12T14:57:56.533Z,6.03
2019-02-12T15:00:58.385Z,5.00
2019-02-12T15:04:00.811Z,8.67
2019-02-12T15:07:02.705Z,13.77
2019-02-12T15:10:11.830Z,11.57
2019-02-12T15:13:13.740Z,9.20
2019-02-12T15:16:15.780Z,11.23
2019-02-12T15:19:17.785Z,9.53
2019-02-12T15:22:19.698Z,15.47
2019-02-12T15:25:21.561Z,8.90
2019-02-12T15:28:23.535Z,5.73
2019-02-12T15:31:25.453Z,6.23
2019-02-12T15:34:27.549Z,11.33
2019-02-12T15:37:29.423Z,17.20
2019-02-12T15:40:31.318Z,11.60
2019-02-12T15:43:33.261Z,10.70
2019-02-12T15:46:35.172Z,12.63
2019-02-12T15:49:37.227Z,13.50
2019-02-12T15:52:39.163Z,16.23
2019-02-12T15:55:42.418Z,13.77
2019-02-12T15:58:45.200Z,15.23
2019-02-12T16:01:49.144Z,10.47
2019-02-12T16:04:50.915Z,10.70
2019-02-12T16:07:52.939Z,17.00
2019-02-12T16:10:55.471Z,20.83
2019-02-12T16:13:58.939Z,19.83
2019-02-12T16:17:00.919Z,12.77
2019-02-12T16:20:04.554Z,11.47
2019-02-12T16:23:06.473Z,11.27
2019-02-12T16:26:08.403Z,22.50
2019-02-12T16:29:10.273Z,9.87
2019-02-12T16:32:12.357Z,10.63
2019-02-12T16:35:15.490Z,7.40
2019-02-12T16:38:17.422Z,10.83
2019-02-12T16:41:19.395Z,10.50
2019-02-12T16:44:21.435Z,19.33
2019-02-12T16:47:23.459Z,17.40
2019-02-12T16:50:25.632Z,19.20
2019-02-12T16:53:27.949Z,21.60
2019-02-12T16:56:30.075Z,17.20
2019-02-12T16:59:31.938Z,11.40
2019-02-12T17:02:35.078Z,11.80
2019-02-12T17:05:37.020Z,12.93
2019-02-12T17:08:38.959Z,9.23
2019-02-12T17:11:41.235Z,14.20
2019-02-12T17:14:43.325Z,13.53
2019-02-12T17:17:45.669Z,14.67
2019-02-12T17:20:47.669Z,13.03
2019-02-12T17:23:49.699Z,13.83
2019-02-12T17:26:51.641Z,19.73
2019-02-12T17:29:53.633Z,21.03
2019-02-12T17:32:55.536Z,87.33
2019-02-12T17:35:57.445Z,86.97
2019-02-12T17:39:00.386Z,70.60
2019-02-12T17:42:03.415Z,65.47
2019-02-12T17:45:11.147Z,39.13
2019-02-12T17:48:13.075Z,103.17
2019-02-12T17:51:15.058Z,168.03
2019-02-12T17:54:18.732Z,105.67
2019-02-12T17:57:21.043Z,71.03
2019-02-12T18:00:27.572Z,38.57
2019-02-12T18:03:32.675Z,25.33
2019-02-12T18:06:35.160Z,26.63
2019-02-12T18:09:37.115Z,31.73
2019-02-12T18:12:39.022Z,27.93
2019-02-12T18:15:44.566Z,36.97
2019-02-12T18:18:46.446Z,38.63
2019-02-12T18:21:49.635Z,29.13
2019-02-12T18:24:51.752Z,21.37
2019-02-12T18:27:53.683Z,15.90
2019-02-12T18:30:55.662Z,22.37
2019-02-12T18:33:58.934Z,14.63
2019-02-12T18:37:02.319Z,15.13
2019-02-12T18:40:08.013Z,24.23
2019-02-12T18:43:11.819Z,25.63
2019-02-12T18:46:13.712Z,21.97
2019-02-12T18:49:17.454Z,21.63
2019-02-12T18:52:19.677Z,26.10
2019-02-12T18:55:21.617Z,40.07
2019-02-12T18:58:23.784Z,29.07
2019-02-12T19:01:26.286Z,25.90
2019-02-12T19:04:28.315Z,31.47
2019-02-12T19:07:30.219Z,28.43
2019-02-12T19:10:33.550Z,31.07
2019-02-12T19:13:35.516Z,28.27
2019-02-12T19:16:38.683Z,21.93
2019-02-12T19:19:41.737Z,26.03
2019-02-12T19:22:51.058Z,31.50
2019-02-12T19:25:53.029Z,30.70
2019-02-12T19:28:55.007Z,24.57
2019-02-12T19:31:59.597Z,31.83
2019-02-12T19:35:01.773Z,43.50
2019-02-12T19:38:05.056Z,54.37
2019-02-12T19:41:06.964Z,39.83
2019-02-12T19:44:08.978Z,33.67
2019-02-12T19:47:12.315Z,42.33
2019-02-12T19:50:14.218Z,38.93
2019-02-12T19:53:16.657Z,21.50
2019-02-12T19:56:20.390Z,18.60
2019-02-12T19:59:22.505Z,25.00
2019-02-12T20:02:25.524Z,24.90
2019-02-12T20:05:29.793Z,40.23
2019-02-12T20:08:31.819Z,19.90
2019-02-12T20:11:33.973Z,14.77
2019-02-12T20:14:40.663Z,19.70
2019-02-12T20:17:42.587Z,25.03
2019-02-12T20:20:46.098Z,18.90
2019-02-12T20:23:50.954Z,29.50
2019-02-12T20:26:52.898Z,28.53
2019-02-12T20:29:56.587Z,32.50
2019-02-12T20:32:58.538Z,35.17
2019-02-12T20:36:00.418Z,26.07
2019-02-12T20:39:06.810Z,36.43
2019-02-12T20:42:12.819Z,31.43
2019-02-12T20:45:16.179Z,34.07
2019-02-12T20:48:19.084Z,59.87
2019-02-12T20:51:21.055Z,69.60
2019-02-12T20:54:25.162Z,75.20
2019-02-12T20:57:29.941Z,60.90
2019-02-12T21:00:33.748Z,45.03
2019-02-12T21:03:35.756Z,54.80
2019-02-12T21:06:39.638Z,51.70
2019-02-12T21:09:42.552Z,35.53
2019-02-12T21:12:44.739Z,28.87
2019-02-12T21:15:47.731Z,35.27
2019-02-12T21:18:50.628Z,41.37
2019-02-12T21:21:54.181Z,32.20
2019-02-12T21:24:57.491Z,32.70
2019-02-12T21:28:00.627Z,29.07
2019-02-12T21:31:02.631Z,29.90
2019-02-12T21:34:04.592Z,33.33
2019-02-12T21:37:06.540Z,33.97
2019-02-12T21:40:14.605Z,32.23
2019-02-12T21:43:18.558Z,27.03
2019-02-12T21:46:21.995Z,37.60
2019-02-12T21:49:24.008Z,28.10
2019-02-12T21:52:25.943Z,31.63
2019-02-12T21:55:28.258Z,30.77
2019-02-12T21:58:30.283Z,25.27
2019-02-12T22:01:32.305Z,30.10
2019-02-12T22:04:34.170Z,31.53
2019-02-12T22:07:36.154Z,28.97
2019-02-12T22:10:46.233Z,32.53
2019-02-12T22:13:42.456Z,27.40
2019-02-12T22:16:44.320Z,33.23
2019-02-12T22:19:46.257Z,32.87
2019-02-12T22:22:48.171Z,29.73
2019-02-12T22:25:50.123Z,25.77
2019-02-12T22:28:52.024Z,24.17
2019-02-12T22:31:53.953Z,28.17
2019-02-12T22:34:55.838Z,25.77
2019-02-12T22:37:57.754Z,30.20
2019-02-12T22:40:59.667Z,31.93
2019-02-12T22:44:01.609Z,27.13
2019-02-12T22:47:03.466Z,32.03
2019-02-12T22:50:08.489Z,29.40
2019-02-12T22:53:10.394Z,30.33
2019-02-12T22:56:12.341Z,30.43
2019-02-12T22:59:14.225Z,29.90
2019-02-12T23:02:16.246Z,19.77
2019-02-12T23:05:18.232Z,23.07
2019-02-12T23:08:20.169Z,29.27
2019-02-12T23:11:22.089Z,28.80
2019-02-12T23:14:23.952Z,25.93
2019-02-12T23:17:25.832Z,18.73
2019-02-12T23:20:27.767Z,20.60
2019-02-12T23:23:29.603Z,28.90
2019-02-12T23:26:31.574Z,19.37
2019-02-12T23:29:33.438Z,18.83
2019-02-12T23:32:35.433Z,22.03
2019-02-12T23:35:37.413Z,16.67
2019-02-12T23:38:39.348Z,15.23
2019-02-12T23:41:41.269Z,11.70
2019-02-12T23:44:43.144Z,31.07
2019-02-12T23:47:45.107Z,23.17
2019-02-12T23:50:47.893Z,16.50
2019-02-12T23:53:49.767Z,12.27
2019-02-12T23:56:51.680Z,21.40
2019-02-12T23:59:53.629Z,18.87
